sensor_id;sensor_type;location;lat;lon;timestamp;P1;durP1;ratioP1;P2;durP2;ratioP2
29730;SDS011;16639;51.488;0.152;2023-11-22T00:00:35;12.70;;;4.55;;
29730;SDS011;16639;51.488;0.152;2023-11-22T00:03:02;19.10;;;4.95;;
29730;SDS011;16639;51.488;0.152;2023-11-22T00:05:30;12.23;;;4.97;;
29730;SDS011;16639;51.488;0.152;2023-11-22T00:07:57;14.38;;;5.68;;
29730;SDS011;16639;51.488;0.152;2023-11-22T00:10:25;13.95;;;5.00;;
29730;SDS011;16639;51.488;0.152;2023-11-22T00:12:52;21.58;;;4.93;;
29730;SDS011;16639;51.488;0.152;2023-11-22T00:15:20;22.60;;;6.70;;
29730;SDS011;16639;51.488;0.152;2023-11-22T00:17:47;18.30;;;4.60;;
29730;SDS011;16639;51.488;0.152;2023-11-22T00:20:15;28.30;;;4.53;;
29730;SDS011;16639;51.488;0.152;2023-11-22T00:22:44;13.63;;;4.47;;
29730;SDS011;16639;51.488;0.152;2023-11-22T00:25:14;15.82;;;4.60;;
29730;SDS011;16639;51.488;0.152;2023-11-22T00:27:42;15.77;;;4.97;;
29730;SDS011;16639;51.488;0.152;2023-11-22T00:30:09;12.95;;;4.63;;
29730;SDS011;16639;51.488;0.152;2023-11-22T00:32:37;18.58;;;5.43;;
29730;SDS011;16639;51.488;0.152;2023-11-22T00:35:05;11.55;;;3.55;;
29730;SDS011;16639;51.488;0.152;2023-11-22T00:37:32;12.27;;;4.30;;
29730;SDS011;16639;51.488;0.152;2023-11-22T00:40:01;13.75;;;4.80;;
29730;SDS011;16639;51.488;0.152;2023-11-22T00:45:07;12.98;;;5.07;;
29730;SDS011;16639;51.488;0.152;2023-11-22T00:47:35;10.57;;;4.55;;
29730;SDS011;16639;51.488;0.152;2023-11-22T00:50:04;16.83;;;3.92;;
29730;SDS011;16639;51.488;0.152;2023-11-22T00:52:32;15.65;;;4.38;;
29730;SDS011;16639;51.488;0.152;2023-11-22T00:54:59;10.00;;;3.88;;
29730;SDS011;16639;51.488;0.152;2023-11-22T00:57:27;11.70;;;4.03;;
29730;SDS011;16639;51.488;0.152;2023-11-22T00:59:56;17.83;;;4.32;;
29730;SDS011;16639;51.488;0.152;2023-11-22T01:02:24;13.50;;;3.90;;
29730;SDS011;16639;51.488;0.152;2023-11-22T01:04:51;7.75;;;4.20;;
29730;SDS011;16639;51.488;0.152;2023-11-22T01:07:19;12.25;;;3.80;;
29730;SDS011;16639;51.488;0.152;2023-11-22T01:09:46;16.00;;;3.95;;
29730;SDS011;16639;51.488;0.152;2023-11-22T01:12:13;8.25;;;3.25;;
29730;SDS011;16639;51.488;0.152;2023-11-22T01:14:41;12.30;;;3.70;;
29730;SDS011;16639;51.488;0.152;2023-11-22T01:17:08;9.45;;;3.67;;
29730;SDS011;16639;51.488;0.152;2023-11-22T01:19:36;13.95;;;4.20;;
29730;SDS011;16639;51.488;0.152;2023-11-22T01:22:04;10.65;;;4.20;;
29730;SDS011;16639;51.488;0.152;2023-11-22T01:24:31;8.52;;;4.00;;
29730;SDS011;16639;51.488;0.152;2023-11-22T01:26:58;17.20;;;5.40;;
29730;SDS011;16639;51.488;0.152;2023-11-22T01:29:26;14.20;;;5.38;;
29730;SDS011;16639;51.488;0.152;2023-11-22T01:31:53;12.75;;;5.25;;
29730;SDS011;16639;51.488;0.152;2023-11-22T01:34:22;10.95;;;3.90;;
29730;SDS011;16639;51.488;0.152;2023-11-22T01:36:49;10.38;;;3.92;;
29730;SDS011;16639;51.488;0.152;2023-11-22T01:39:17;20.27;;;4.18;;
29730;SDS011;16639;51.488;0.152;2023-11-22T01:41:45;14.82;;;4.40;;
29730;SDS011;16639;51.488;0.152;2023-11-22T01:44:12;9.90;;;4.28;;
29730;SDS011;16639;51.488;0.152;2023-11-22T01:46:40;12.70;;;3.90;;
29730;SDS011;16639;51.488;0.152;2023-11-22T01:49:09;15.18;;;4.25;;
29730;SDS011;16639;51.488;0.152;2023-11-22T01:51:37;11.65;;;4.13;;
29730;SDS011;16639;51.488;0.152;2023-11-22T01:54:06;11.63;;;4.63;;
29730;SDS011;16639;51.488;0.152;2023-11-22T01:56:35;13.55;;;4.35;;
29730;SDS011;16639;51.488;0.152;2023-11-22T01:59:04;12.10;;;4.38;;
29730;SDS011;16639;51.488;0.152;2023-11-22T02:01:31;17.02;;;5.15;;
29730;SDS011;16639;51.488;0.152;2023-11-22T02:03:59;19.67;;;5.07;;
29730;SDS011;16639;51.488;0.152;2023-11-22T02:06:28;16.38;;;4.65;;
29730;SDS011;16639;51.488;0.152;2023-11-22T02:08:58;6.75;;;4.13;;
29730;SDS011;16639;51.488;0.152;2023-11-22T02:11:26;10.68;;;3.65;;
29730;SDS011;16639;51.488;0.152;2023-11-22T02:13:54;13.43;;;5.35;;
29730;SDS011;16639;51.488;0.152;2023-11-22T02:16:22;10.60;;;4.22;;
29730;SDS011;16639;51.488;0.152;2023-11-22T02:18:50;13.75;;;4.40;;
29730;SDS011;16639;51.488;0.152;2023-11-22T02:21:18;15.05;;;4.55;;
29730;SDS011;16639;51.488;0.152;2023-11-22T02:23:45;9.25;;;4.28;;
29730;SDS011;16639;51.488;0.152;2023-11-22T02:26:13;14.65;;;4.45;;
29730;SDS011;16639;51.488;0.152;2023-11-22T02:28:44;9.88;;;4.50;;
29730;SDS011;16639;51.488;0.152;2023-11-22T02:31:11;14.75;;;4.80;;
29730;SDS011;16639;51.488;0.152;2023-11-22T02:33:40;12.68;;;4.80;;
29730;SDS011;16639;51.488;0.152;2023-11-22T02:36:08;18.83;;;4.78;;
29730;SDS011;16639;51.488;0.152;2023-11-22T02:38:39;18.95;;;4.28;;
29730;SDS011;16639;51.488;0.152;2023-11-22T02:41:07;14.85;;;4.80;;
29730;SDS011;16639;51.488;0.152;2023-11-22T02:43:36;11.57;;;4.18;;
29730;SDS011;16639;51.488;0.152;2023-11-22T02:46:03;12.68;;;4.82;;
29730;SDS011;16639;51.488;0.152;2023-11-22T02:48:31;13.15;;;4.70;;
29730;SDS011;16639;51.488;0.152;2023-11-22T02:50:58;11.43;;;4.68;;
29730;SDS011;16639;51.488;0.152;2023-11-22T02:53:26;22.10;;;6.07;;
29730;SDS011;16639;51.488;0.152;2023-11-22T02:55:54;8.07;;;4.43;;
29730;SDS011;16639;51.488;0.152;2023-11-22T02:58:22;10.10;;;5.05;;
29730;SDS011;16639;51.488;0.152;2023-11-22T03:00:50;13.43;;;4.63;;
29730;SDS011;16639;51.488;0.152;2023-11-22T03:03:21;9.77;;;3.97;;
29730;SDS011;16639;51.488;0.152;2023-11-22T03:05:50;10.93;;;4.28;;
29730;SDS011;16639;51.488;0.152;2023-11-22T03:08:18;15.38;;;5.10;;
29730;SDS011;16639;51.488;0.152;2023-11-22T03:10:45;8.98;;;3.55;;
29730;SDS011;16639;51.488;0.152;2023-11-22T03:13:13;15.02;;;4.38;;
29730;SDS011;16639;51.488;0.152;2023-11-22T03:15:40;8.48;;;3.63;;
29730;SDS011;16639;51.488;0.152;2023-11-22T03:18:09;12.55;;;4.65;;
29730;SDS011;16639;51.488;0.152;2023-11-22T03:20:37;12.93;;;3.97;;
29730;SDS011;16639;51.488;0.152;2023-11-22T03:23:09;15.10;;;4.80;;
29730;SDS011;16639;51.488;0.152;2023-11-22T03:25:39;13.70;;;4.85;;
29730;SDS011;16639;51.488;0.152;2023-11-22T03:28:07;13.18;;;3.83;;
29730;SDS011;16639;51.488;0.152;2023-11-22T03:30:34;11.38;;;4.15;;
29730;SDS011;16639;51.488;0.152;2023-11-22T03:33:02;13.35;;;4.50;;
29730;SDS011;16639;51.488;0.152;2023-11-22T03:35:29;9.85;;;4.25;;
29730;SDS011;16639;51.488;0.152;2023-11-22T03:37:58;14.27;;;4.70;;
29730;SDS011;16639;51.488;0.152;2023-11-22T03:40:25;12.18;;;4.38;;
29730;SDS011;16639;51.488;0.152;2023-11-22T03:42:53;10.75;;;3.60;;
29730;SDS011;16639;51.488;0.152;2023-11-22T03:45:20;13.25;;;4.63;;
29730;SDS011;16639;51.488;0.152;2023-11-22T03:47:47;12.05;;;4.22;;
29730;SDS011;16639;51.488;0.152;2023-11-22T03:50:15;8.68;;;4.30;;
29730;SDS011;16639;51.488;0.152;2023-11-22T03:52:43;11.38;;;4.35;;
29730;SDS011;16639;51.488;0.152;2023-11-22T03:55:10;12.02;;;3.67;;
29730;SDS011;16639;51.488;0.152;2023-11-22T03:57:38;9.18;;;3.75;;
29730;SDS011;16639;51.488;0.152;2023-11-22T04:00:05;9.25;;;4.43;;
29730;SDS011;16639;51.488;0.152;2023-11-22T04:02:33;9.77;;;4.47;;
29730;SDS011;16639;51.488;0.152;2023-11-22T04:05:00;12.25;;;4.53;;
29730;SDS011;16639;51.488;0.152;2023-11-22T04:07:28;9.07;;;4.93;;
29730;SDS011;16639;51.488;0.152;2023-11-22T04:09:55;12.70;;;4.18;;
29730;SDS011;16639;51.488;0.152;2023-11-22T04:12:23;13.43;;;4.30;;
29730;SDS011;16639;51.488;0.152;2023-11-22T04:14:51;9.60;;;4.47;;
29730;SDS011;16639;51.488;0.152;2023-11-22T04:17:19;8.30;;;4.03;;
29730;SDS011;16639;51.488;0.152;2023-11-22T04:19:47;10.52;;;3.95;;
29730;SDS011;16639;51.488;0.152;2023-11-22T04:22:14;14.45;;;3.25;;
29730;SDS011;16639;51.488;0.152;2023-11-22T04:24:41;10.02;;;3.95;;
29730;SDS011;16639;51.488;0.152;2023-11-22T04:27:09;8.10;;;4.00;;
29730;SDS011;16639;51.488;0.152;2023-11-22T04:29:36;11.18;;;3.42;;
29730;SDS011;16639;51.488;0.152;2023-11-22T04:32:04;15.70;;;5.30;;
29730;SDS011;16639;51.488;0.152;2023-11-22T04:34:32;13.52;;;5.53;;
29730;SDS011;16639;51.488;0.152;2023-11-22T04:37:02;8.15;;;4.00;;
29730;SDS011;16639;51.488;0.152;2023-11-22T04:39:29;10.02;;;4.45;;
29730;SDS011;16639;51.488;0.152;2023-11-22T04:41:56;9.48;;;3.97;;
29730;SDS011;16639;51.488;0.152;2023-11-22T04:44:24;16.13;;;3.85;;
29730;SDS011;16639;51.488;0.152;2023-11-22T04:46:51;19.00;;;6.18;;
29730;SDS011;16639;51.488;0.152;2023-11-22T04:49:19;10.27;;;4.47;;
29730;SDS011;16639;51.488;0.152;2023-11-22T04:51:46;13.02;;;4.00;;
29730;SDS011;16639;51.488;0.152;2023-11-22T04:54:14;7.97;;;4.65;;
29730;SDS011;16639;51.488;0.152;2023-11-22T04:56:41;18.05;;;4.60;;
29730;SDS011;16639;51.488;0.152;2023-11-22T04:59:09;9.50;;;3.58;;
29730;SDS011;16639;51.488;0.152;2023-11-22T05:01:36;14.80;;;6.25;;
29730;SDS011;16639;51.488;0.152;2023-11-22T05:04:04;14.10;;;4.80;;
29730;SDS011;16639;51.488;0.152;2023-11-22T05:06:32;12.65;;;4.05;;
29730;SDS011;16639;51.488;0.152;2023-11-22T05:08:59;11.13;;;3.78;;
29730;SDS011;16639;51.488;0.152;2023-11-22T05:11:27;13.98;;;4.05;;
29730;SDS011;16639;51.488;0.152;2023-11-22T05:13:54;7.43;;;4.30;;
29730;SDS011;16639;51.488;0.152;2023-11-22T05:16:22;13.60;;;4.20;;
29730;SDS011;16639;51.488;0.152;2023-11-22T05:18:50;8.10;;;3.95;;
29730;SDS011;16639;51.488;0.152;2023-11-22T05:21:18;11.85;;;3.58;;
29730;SDS011;16639;51.488;0.152;2023-11-22T05:23:46;9.85;;;3.90;;
29730;SDS011;16639;51.488;0.152;2023-11-22T05:26:13;12.38;;;4.07;;
29730;SDS011;16639;51.488;0.152;2023-11-22T05:28:41;13.52;;;3.88;;
29730;SDS011;16639;51.488;0.152;2023-11-22T05:31:08;8.90;;;3.70;;
29730;SDS011;16639;51.488;0.152;2023-11-22T05:33:35;13.68;;;3.45;;
29730;SDS011;16639;51.488;0.152;2023-11-22T05:36:03;10.48;;;4.07;;
29730;SDS011;16639;51.488;0.152;2023-11-22T05:38:30;7.63;;;3.53;;
29730;SDS011;16639;51.488;0.152;2023-11-22T05:41:01;12.05;;;4.28;;
29730;SDS011;16639;51.488;0.152;2023-11-22T05:43:28;11.35;;;5.18;;
29730;SDS011;16639;51.488;0.152;2023-11-22T05:45:55;13.15;;;4.47;;
29730;SDS011;16639;51.488;0.152;2023-11-22T05:48:23;11.02;;;3.97;;
29730;SDS011;16639;51.488;0.152;2023-11-22T05:50:50;8.48;;;4.22;;
29730;SDS011;16639;51.488;0.152;2023-11-22T05:53:18;14.25;;;4.63;;
29730;SDS011;16639;51.488;0.152;2023-11-22T05:55:49;7.75;;;3.78;;
29730;SDS011;16639;51.488;0.152;2023-11-22T05:58:17;15.98;;;4.55;;
29730;SDS011;16639;51.488;0.152;2023-11-22T06:00:45;13.35;;;3.88;;
29730;SDS011;16639;51.488;0.152;2023-11-22T06:03:13;13.05;;;4.72;;
29730;SDS011;16639;51.488;0.152;2023-11-22T06:05:40;11.43;;;3.53;;
29730;SDS011;16639;51.488;0.152;2023-11-22T06:08:08;10.40;;;4.50;;
29730;SDS011;16639;51.488;0.152;2023-11-22T06:10:38;11.38;;;4.40;;
29730;SDS011;16639;51.488;0.152;2023-11-22T06:13:08;8.63;;;4.28;;
29730;SDS011;16639;51.488;0.152;2023-11-22T06:15:37;18.98;;;4.90;;
29730;SDS011;16639;51.488;0.152;2023-11-22T06:18:04;14.20;;;5.13;;
29730;SDS011;16639;51.488;0.152;2023-11-22T06:20:32;18.13;;;4.80;;
29730;SDS011;16639;51.488;0.152;2023-11-22T06:22:59;12.15;;;4.78;;
29730;SDS011;16639;51.488;0.152;2023-11-22T06:25:27;10.13;;;4.93;;
29730;SDS011;16639;51.488;0.152;2023-11-22T06:27:54;12.40;;;4.57;;
29730;SDS011;16639;51.488;0.152;2023-11-22T06:30:26;9.90;;;5.85;;
29730;SDS011;16639;51.488;0.152;2023-11-22T06:32:53;18.20;;;7.43;;
29730;SDS011;16639;51.488;0.152;2023-11-22T06:35:21;11.65;;;4.95;;
29730;SDS011;16639;51.488;0.152;2023-11-22T06:37:48;11.95;;;5.97;;
29730;SDS011;16639;51.488;0.152;2023-11-22T06:40:16;14.45;;;5.32;;
29730;SDS011;16639;51.488;0.152;2023-11-22T06:42:49;14.68;;;6.20;;
29730;SDS011;16639;51.488;0.152;2023-11-22T06:45:18;14.35;;;5.55;;
29730;SDS011;16639;51.488;0.152;2023-11-22T06:47:46;15.23;;;5.93;;
29730;SDS011;16639;51.488;0.152;2023-11-22T06:50:14;13.77;;;6.22;;
29730;SDS011;16639;51.488;0.152;2023-11-22T06:52:42;12.60;;;5.05;;
29730;SDS011;16639;51.488;0.152;2023-11-22T06:55:10;17.13;;;5.50;;
29730;SDS011;16639;51.488;0.152;2023-11-22T06:57:38;13.65;;;5.90;;
29730;SDS011;16639;51.488;0.152;2023-11-22T07:00:05;18.80;;;6.85;;
29730;SDS011;16639;51.488;0.152;2023-11-22T07:02:36;13.30;;;6.28;;
29730;SDS011;16639;51.488;0.152;2023-11-22T07:05:04;17.80;;;6.35;;
29730;SDS011;16639;51.488;0.152;2023-11-22T07:07:36;15.18;;;5.57;;
29730;SDS011;16639;51.488;0.152;2023-11-22T07:10:04;14.45;;;7.07;;
29730;SDS011;16639;51.488;0.152;2023-11-22T07:12:32;23.90;;;6.72;;
29730;SDS011;16639;51.488;0.152;2023-11-22T07:15:03;11.85;;;6.18;;
29730;SDS011;16639;51.488;0.152;2023-11-22T07:17:32;18.05;;;6.55;;
29730;SDS011;16639;51.488;0.152;2023-11-22T07:20:00;10.45;;;6.70;;
29730;SDS011;16639;51.488;0.152;2023-11-22T07:22:27;17.10;;;6.30;;
29730;SDS011;16639;51.488;0.152;2023-11-22T07:24:57;15.90;;;7.00;;
29730;SDS011;16639;51.488;0.152;2023-11-22T07:27:29;15.35;;;6.25;;
29730;SDS011;16639;51.488;0.152;2023-11-22T07:29:57;15.57;;;6.28;;
29730;SDS011;16639;51.488;0.152;2023-11-22T07:32:25;14.35;;;7.22;;
29730;SDS011;16639;51.488;0.152;2023-11-22T07:34:53;17.60;;;6.72;;
29730;SDS011;16639;51.488;0.152;2023-11-22T07:37:23;17.10;;;7.60;;
29730;SDS011;16639;51.488;0.152;2023-11-22T07:39:51;16.90;;;9.13;;
29730;SDS011;16639;51.488;0.152;2023-11-22T07:42:23;13.00;;;7.57;;
29730;SDS011;16639;51.488;0.152;2023-11-22T07:44:50;13.38;;;7.32;;
29730;SDS011;16639;51.488;0.152;2023-11-22T07:47:23;18.40;;;8.70;;
29730;SDS011;16639;51.488;0.152;2023-11-22T07:49:51;18.77;;;7.90;;
29730;SDS011;16639;51.488;0.152;2023-11-22T07:52:18;23.25;;;6.25;;
29730;SDS011;16639;51.488;0.152;2023-11-22T07:54:46;12.02;;;6.68;;
29730;SDS011;16639;51.488;0.152;2023-11-22T07:57:14;15.02;;;8.05;;
29730;SDS011;16639;51.488;0.152;2023-11-22T07:59:41;15.10;;;7.93;;
29730;SDS011;16639;51.488;0.152;2023-11-22T08:02:09;20.65;;;8.27;;
29730;SDS011;16639;51.488;0.152;2023-11-22T08:04:38;13.35;;;6.93;;
29730;SDS011;16639;51.488;0.152;2023-11-22T08:07:07;15.57;;;6.40;;
29730;SDS011;16639;51.488;0.152;2023-11-22T08:09:34;12.95;;;6.70;;
29730;SDS011;16639;51.488;0.152;2023-11-22T08:12:02;15.30;;;6.95;;
29730;SDS011;16639;51.488;0.152;2023-11-22T08:14:32;16.38;;;7.03;;
29730;SDS011;16639;51.488;0.152;2023-11-22T08:17:00;12.82;;;5.88;;
29730;SDS011;16639;51.488;0.152;2023-11-22T08:19:28;12.38;;;7.00;;
29730;SDS011;16639;51.488;0.152;2023-11-22T08:21:56;20.08;;;6.55;;
29730;SDS011;16639;51.488;0.152;2023-11-22T08:24:24;12.32;;;6.53;;
29730;SDS011;16639;51.488;0.152;2023-11-22T08:26:51;17.40;;;7.15;;
29730;SDS011;16639;51.488;0.152;2023-11-22T08:29:19;16.02;;;7.30;;
29730;SDS011;16639;51.488;0.152;2023-11-22T08:31:46;18.05;;;6.75;;
29730;SDS011;16639;51.488;0.152;2023-11-22T08:34:15;20.02;;;7.45;;
29730;SDS011;16639;51.488;0.152;2023-11-22T08:36:42;17.92;;;6.50;;
29730;SDS011;16639;51.488;0.152;2023-11-22T08:39:10;12.98;;;7.05;;
29730;SDS011;16639;51.488;0.152;2023-11-22T08:41:37;16.75;;;7.13;;
29730;SDS011;16639;51.488;0.152;2023-11-22T08:44:05;21.80;;;6.60;;
29730;SDS011;16639;51.488;0.152;2023-11-22T08:46:33;16.25;;;6.28;;
29730;SDS011;16639;51.488;0.152;2023-11-22T08:49:01;17.35;;;7.75;;
29730;SDS011;16639;51.488;0.152;2023-11-22T08:51:29;11.77;;;6.40;;
29730;SDS011;16639;51.488;0.152;2023-11-22T08:53:56;15.50;;;6.10;;
29730;SDS011;16639;51.488;0.152;2023-11-22T08:56:24;13.80;;;6.03;;
29730;SDS011;16639;51.488;0.152;2023-11-22T08:58:52;10.38;;;6.00;;
29730;SDS011;16639;51.488;0.152;2023-11-22T09:01:21;11.60;;;6.03;;
29730;SDS011;16639;51.488;0.152;2023-11-22T09:03:49;13.93;;;6.68;;
29730;SDS011;16639;51.488;0.152;2023-11-22T09:06:17;14.43;;;6.18;;
29730;SDS011;16639;51.488;0.152;2023-11-22T09:08:45;15.05;;;6.78;;
29730;SDS011;16639;51.488;0.152;2023-11-22T09:11:14;13.45;;;7.43;;
29730;SDS011;16639;51.488;0.152;2023-11-22T09:13:44;16.92;;;6.55;;
29730;SDS011;16639;51.488;0.152;2023-11-22T09:16:12;23.23;;;7.43;;
29730;SDS011;16639;51.488;0.152;2023-11-22T09:18:39;15.00;;;7.22;;
29730;SDS011;16639;51.488;0.152;2023-11-22T09:21:07;18.17;;;7.32;;
29730;SDS011;16639;51.488;0.152;2023-11-22T09:23:36;22.55;;;8.35;;
29730;SDS011;16639;51.488;0.152;2023-11-22T09:26:06;15.15;;;7.18;;
29730;SDS011;16639;51.488;0.152;2023-11-22T09:28:35;23.77;;;9.32;;
29730;SDS011;16639;51.488;0.152;2023-11-22T09:31:03;16.67;;;7.20;;
29730;SDS011;16639;51.488;0.152;2023-11-22T09:33:33;19.27;;;7.40;;
29730;SDS011;16639;51.488;0.152;2023-11-22T09:36:01;18.35;;;7.70;;
29730;SDS011;16639;51.488;0.152;2023-11-22T09:38:36;18.02;;;7.75;;
29730;SDS011;16639;51.488;0.152;2023-11-22T09:41:05;17.05;;;7.70;;
29730;SDS011;16639;51.488;0.152;2023-11-22T09:43:42;16.38;;;7.07;;
29730;SDS011;16639;51.488;0.152;2023-11-22T09:46:11;18.38;;;7.38;;
29730;SDS011;16639;51.488;0.152;2023-11-22T09:48:39;13.55;;;6.53;;
29730;SDS011;16639;51.488;0.152;2023-11-22T09:51:11;16.52;;;6.90;;
29730;SDS011;16639;51.488;0.152;2023-11-22T09:54:00;13.32;;;6.18;;
29730;SDS011;16639;51.488;0.152;2023-11-22T09:56:38;17.77;;;6.28;;
29730;SDS011;16639;51.488;0.152;2023-11-22T09:59:07;12.63;;;6.10;;
29730;SDS011;16639;51.488;0.152;2023-11-22T10:01:39;14.50;;;6.82;;
29730;SDS011;16639;51.488;0.152;2023-11-22T10:04:07;23.75;;;9.35;;
29730;SDS011;16639;51.488;0.152;2023-11-22T10:06:34;12.23;;;5.25;;
29730;SDS011;16639;51.488;0.152;2023-11-22T10:09:03;11.93;;;4.60;;
29730;SDS011;16639;51.488;0.152;2023-11-22T10:11:41;9.48;;;3.70;;
29730;SDS011;16639;51.488;0.152;2023-11-22T10:14:11;9.02;;;4.72;;
29730;SDS011;16639;51.488;0.152;2023-11-22T10:17:00;12.52;;;4.10;;
29730;SDS011;16639;51.488;0.152;2023-11-22T10:19:28;7.45;;;3.65;;
29730;SDS011;16639;51.488;0.152;2023-11-22T10:22:14;11.63;;;3.70;;
29730;SDS011;16639;51.488;0.152;2023-11-22T10:24:44;8.00;;;3.50;;
29730;SDS011;16639;51.488;0.152;2023-11-22T10:27:13;9.13;;;5.18;;
29730;SDS011;16639;51.488;0.152;2023-11-22T10:29:45;8.43;;;4.38;;
29730;SDS011;16639;51.488;0.152;2023-11-22T10:32:16;13.95;;;3.95;;
29730;SDS011;16639;51.488;0.152;2023-11-22T10:34:44;6.90;;;3.75;;
29730;SDS011;16639;51.488;0.152;2023-11-22T10:37:12;16.15;;;4.50;;
29730;SDS011;16639;51.488;0.152;2023-11-22T10:39:40;9.88;;;4.25;;
29730;SDS011;16639;51.488;0.152;2023-11-22T10:42:10;12.35;;;3.78;;
29730;SDS011;16639;51.488;0.152;2023-11-22T10:44:38;11.07;;;4.35;;
29730;SDS011;16639;51.488;0.152;2023-11-22T10:47:07;13.77;;;4.78;;
29730;SDS011;16639;51.488;0.152;2023-11-22T10:49:35;11.25;;;4.28;;
29730;SDS011;16639;51.488;0.152;2023-11-22T10:52:03;14.55;;;3.90;;
29730;SDS011;16639;51.488;0.152;2023-11-22T10:54:34;9.70;;;4.07;;
29730;SDS011;16639;51.488;0.152;2023-11-22T10:57:03;10.18;;;3.55;;
29730;SDS011;16639;51.488;0.152;2023-11-22T10:59:32;9.60;;;4.40;;
29730;SDS011;16639;51.488;0.152;2023-11-22T11:02:01;14.68;;;3.50;;
29730;SDS011;16639;51.488;0.152;2023-11-22T11:04:34;6.25;;;3.47;;
29730;SDS011;16639;51.488;0.152;2023-11-22T11:07:32;13.20;;;4.20;;
29730;SDS011;16639;51.488;0.152;2023-11-22T11:10:04;9.10;;;4.13;;
29730;SDS011;16639;51.488;0.152;2023-11-22T11:12:42;6.88;;;3.53;;
29730;SDS011;16639;51.488;0.152;2023-11-22T11:15:11;8.52;;;3.13;;
29730;SDS011;16639;51.488;0.152;2023-11-22T11:17:40;6.47;;;2.97;;
29730;SDS011;16639;51.488;0.152;2023-11-22T11:20:08;8.63;;;3.28;;
29730;SDS011;16639;51.488;0.152;2023-11-22T11:22:40;6.97;;;2.65;;
29730;SDS011;16639;51.488;0.152;2023-11-22T11:25:08;8.05;;;3.58;;
29730;SDS011;16639;51.488;0.152;2023-11-22T11:27:35;7.28;;;2.58;;
29730;SDS011;16639;51.488;0.152;2023-11-22T11:30:49;12.18;;;2.92;;
29730;SDS011;16639;51.488;0.152;2023-11-22T11:33:13;4.50;;;2.75;;
29730;SDS011;16639;51.488;0.152;2023-11-22T11:36:02;6.50;;;2.53;;
29730;SDS011;16639;51.488;0.152;2023-11-22T11:38:36;6.57;;;2.50;;
29730;SDS011;16639;51.488;0.152;2023-11-22T11:41:10;4.63;;;2.03;;
29730;SDS011;16639;51.488;0.152;2023-11-22T11:43:40;3.63;;;2.75;;
29730;SDS011;16639;51.488;0.152;2023-11-22T11:46:12;11.77;;;2.63;;
29730;SDS011;16639;51.488;0.152;2023-11-22T11:48:43;3.97;;;2.05;;
29730;SDS011;16639;51.488;0.152;2023-11-22T11:51:15;7.82;;;2.75;;
29730;SDS011;16639;51.488;0.152;2023-11-22T11:53:44;7.50;;;2.50;;
29730;SDS011;16639;51.488;0.152;2023-11-22T11:56:12;2.58;;;2.22;;
29730;SDS011;16639;51.488;0.152;2023-11-22T11:58:43;7.90;;;2.78;;
29730;SDS011;16639;51.488;0.152;2023-11-22T12:01:14;6.03;;;2.47;;
29730;SDS011;16639;51.488;0.152;2023-11-22T12:03:43;4.70;;;2.67;;
29730;SDS011;16639;51.488;0.152;2023-11-22T12:06:17;14.10;;;3.00;;
29730;SDS011;16639;51.488;0.152;2023-11-22T12:08:46;8.45;;;2.75;;
29730;SDS011;16639;51.488;0.152;2023-11-22T12:11:14;3.95;;;2.40;;
29730;SDS011;16639;51.488;0.152;2023-11-22T12:13:43;9.52;;;2.97;;
29730;SDS011;16639;51.488;0.152;2023-11-22T12:16:13;7.90;;;2.75;;
29730;SDS011;16639;51.488;0.152;2023-11-22T12:18:44;6.93;;;3.10;;
29730;SDS011;16639;51.488;0.152;2023-11-22T12:21:16;7.68;;;3.55;;
29730;SDS011;16639;51.488;0.152;2023-11-22T12:23:45;6.63;;;2.63;;
29730;SDS011;16639;51.488;0.152;2023-11-22T12:26:17;7.05;;;2.97;;
29730;SDS011;16639;51.488;0.152;2023-11-22T12:28:47;7.15;;;3.50;;
29730;SDS011;16639;51.488;0.152;2023-11-22T12:31:29;7.28;;;3.00;;
29730;SDS011;16639;51.488;0.152;2023-11-22T12:34:04;5.45;;;2.80;;
29730;SDS011;16639;51.488;0.152;2023-11-22T12:36:34;7.70;;;3.85;;
29730;SDS011;16639;51.488;0.152;2023-11-22T12:39:06;8.05;;;3.08;;
29730;SDS011;16639;51.488;0.152;2023-11-22T12:41:35;8.13;;;2.72;;
29730;SDS011;16639;51.488;0.152;2023-11-22T12:44:03;7.70;;;3.08;;
29730;SDS011;16639;51.488;0.152;2023-11-22T12:46:44;11.93;;;3.05;;
29730;SDS011;16639;51.488;0.152;2023-11-22T12:49:13;12.98;;;3.00;;
29730;SDS011;16639;51.488;0.152;2023-11-22T12:51:51;9.38;;;2.78;;
29730;SDS011;16639;51.488;0.152;2023-11-22T12:54:21;16.90;;;4.20;;
29730;SDS011;16639;51.488;0.152;2023-11-22T12:56:50;15.45;;;4.22;;
29730;SDS011;16639;51.488;0.152;2023-11-22T12:59:21;7.88;;;3.70;;
29730;SDS011;16639;51.488;0.152;2023-11-22T13:01:48;7.32;;;3.72;;
29730;SDS011;16639;51.488;0.152;2023-11-22T13:04:16;7.65;;;3.50;;
29730;SDS011;16639;51.488;0.152;2023-11-22T13:06:47;6.63;;;3.45;;
29730;SDS011;16639;51.488;0.152;2023-11-22T13:09:15;11.73;;;4.13;;
29730;SDS011;16639;51.488;0.152;2023-11-22T13:11:43;8.10;;;3.53;;
29730;SDS011;16639;51.488;0.152;2023-11-22T13:14:11;10.32;;;3.80;;
29730;SDS011;16639;51.488;0.152;2023-11-22T13:16:41;9.20;;;3.95;;
29730;SDS011;16639;51.488;0.152;2023-11-22T13:19:09;9.02;;;3.97;;
29730;SDS011;16639;51.488;0.152;2023-11-22T13:21:39;8.38;;;3.80;;
29730;SDS011;16639;51.488;0.152;2023-11-22T13:24:08;14.85;;;4.38;;
29730;SDS011;16639;51.488;0.152;2023-11-22T13:26:36;8.05;;;3.70;;
29730;SDS011;16639;51.488;0.152;2023-11-22T13:29:04;5.97;;;4.05;;
29730;SDS011;16639;51.488;0.152;2023-11-22T13:31:31;6.82;;;4.30;;
29730;SDS011;16639;51.488;0.152;2023-11-22T13:33:58;9.48;;;4.18;;
29730;SDS011;16639;51.488;0.152;2023-11-22T13:36:26;9.23;;;4.20;;
29730;SDS011;16639;51.488;0.152;2023-11-22T13:38:54;7.28;;;4.13;;
29730;SDS011;16639;51.488;0.152;2023-11-22T13:41:23;10.68;;;3.45;;
29730;SDS011;16639;51.488;0.152;2023-11-22T13:43:52;8.27;;;3.17;;
29730;SDS011;16639;51.488;0.152;2023-11-22T13:46:19;11.65;;;4.00;;
29730;SDS011;16639;51.488;0.152;2023-11-22T13:48:47;7.85;;;3.10;;
29730;SDS011;16639;51.488;0.152;2023-11-22T13:51:15;9.23;;;4.00;;
29730;SDS011;16639;51.488;0.152;2023-11-22T13:53:43;7.93;;;4.32;;
29730;SDS011;16639;51.488;0.152;2023-11-22T13:56:16;13.77;;;4.30;;
29730;SDS011;16639;51.488;0.152;2023-11-22T13:58:46;10.07;;;3.67;;
29730;SDS011;16639;51.488;0.152;2023-11-22T14:01:14;12.77;;;4.90;;
29730;SDS011;16639;51.488;0.152;2023-11-22T14:03:48;7.85;;;3.72;;
29730;SDS011;16639;51.488;0.152;2023-11-22T14:06:16;7.97;;;4.28;;
29730;SDS011;16639;51.488;0.152;2023-11-22T14:08:45;13.02;;;5.40;;
29730;SDS011;16639;51.488;0.152;2023-11-22T14:11:14;5.82;;;4.43;;
29730;SDS011;16639;51.488;0.152;2023-11-22T14:13:42;8.02;;;3.88;;
29730;SDS011;16639;51.488;0.152;2023-11-22T14:16:09;11.82;;;4.38;;
29730;SDS011;16639;51.488;0.152;2023-11-22T14:18:37;8.13;;;3.72;;
29730;SDS011;16639;51.488;0.152;2023-11-22T14:21:05;8.95;;;4.82;;
29730;SDS011;16639;51.488;0.152;2023-11-22T14:23:34;10.18;;;4.43;;
29730;SDS011;16639;51.488;0.152;2023-11-22T14:26:01;11.55;;;4.03;;
29730;SDS011;16639;51.488;0.152;2023-11-22T14:28:29;10.48;;;5.45;;
29730;SDS011;16639;51.488;0.152;2023-11-22T14:30:58;13.07;;;5.40;;
29730;SDS011;16639;51.488;0.152;2023-11-22T14:33:26;14.75;;;4.78;;
29730;SDS011;16639;51.488;0.152;2023-11-22T14:35:58;10.25;;;5.28;;
29730;SDS011;16639;51.488;0.152;2023-11-22T14:38:26;11.77;;;4.97;;
29730;SDS011;16639;51.488;0.152;2023-11-22T14:40:54;8.60;;;3.90;;
29730;SDS011;16639;51.488;0.152;2023-11-22T14:43:23;11.43;;;5.28;;
29730;SDS011;16639;51.488;0.152;2023-11-22T14:45:50;9.60;;;4.25;;
29730;SDS011;16639;51.488;0.152;2023-11-22T14:48:18;17.20;;;4.85;;
29730;SDS011;16639;51.488;0.152;2023-11-22T14:50:46;11.73;;;5.75;;